createdAt,value
2023-10-06T00:03:59.575Z,3.20
2023-10-06T00:09:10.597Z,3.10
2023-10-06T00:14:40.110Z,2.75
2023-10-06T00:19:44.116Z,3.17
2023-10-06T00:25:00.425Z,2.85
2023-10-06T00:30:13.094Z,3.47
2023-10-06T00:35:31.010Z,3.50
2023-10-06T00:40:37.172Z,3.70
2023-10-06T00:50:58.846Z,3.50
2023-10-06T00:56:16.344Z,3.30
2023-10-06T01:01:25.844Z,3.50
2023-10-06T01:06:34.904Z,3.70
2023-10-06T01:11:45.478Z,3.50
2023-10-06T01:16:57.294Z,3.35
2023-10-06T01:22:23.303Z,3.40
2023-10-06T01:27:32.127Z,3.53
2023-10-06T01:32:42.898Z,3.60
2023-10-06T01:37:59.824Z,3.10
2023-10-06T01:43:11.385Z,2.88
2023-10-06T01:48:24.584Z,3.55
2023-10-06T01:53:34.760Z,3.40
2023-10-06T01:58:43.646Z,3.80
2023-10-06T02:03:47.540Z,3.10
2023-10-06T02:08:57.706Z,3.97
2023-10-06T02:14:01.678Z,3.88
2023-10-06T02:19:10.234Z,4.47
2023-10-06T02:24:22.236Z,4.32
2023-10-06T02:29:31.354Z,4.22
2023-10-06T02:34:40.891Z,4.20
2023-10-06T02:39:46.285Z,4.07
2023-10-06T02:44:55.180Z,3.80
2023-10-06T02:50:01.011Z,4.10
2023-10-06T02:55:13.491Z,3.95
2023-10-06T03:00:33.946Z,3.80
2023-10-06T03:05:40.627Z,4.55
2023-10-06T03:10:46.209Z,3.45
2023-10-06T03:15:50.032Z,4.25
2023-10-06T03:21:06.178Z,4.05
2023-10-06T03:26:15.347Z,4.25
2023-10-06T03:31:31.852Z,3.53
2023-10-06T03:36:38.945Z,3.80
2023-10-06T03:41:53.834Z,4.07
2023-10-06T03:46:59.800Z,3.78
2023-10-06T03:52:04.419Z,4.32
2023-10-06T03:57:12.990Z,3.80
2023-10-06T04:02:21.746Z,3.28
2023-10-06T04:07:25.524Z,3.22
2023-10-06T04:12:35.612Z,4.97
2023-10-06T04:17:44.878Z,3.83
2023-10-06T04:22:48.692Z,3.40
2023-10-06T04:27:53.840Z,4.13
2023-10-06T04:32:57.726Z,4.03
2023-10-06T04:38:07.109Z,3.30
2023-10-06T04:43:18.961Z,3.88
2023-10-06T04:48:23.040Z,2.20
2023-10-06T04:53:26.812Z,2.47
2023-10-06T04:58:32.157Z,2.75
2023-10-06T05:03:45.010Z,2.73
2023-10-06T05:08:50.575Z,3.00
2023-10-06T05:14:02.233Z,3.57
2023-10-06T05:19:06.913Z,3.92
2023-10-06T05:24:17.692Z,3.03
2023-10-06T05:29:28.738Z,3.88
2023-10-06T05:34:41.558Z,3.70
2023-10-06T05:39:50.530Z,3.60
2023-10-06T05:45:13.954Z,4.15
2023-10-06T05:50:28.294Z,4.18
2023-10-06T05:55:39.056Z,4.88
2023-10-06T06:00:53.925Z,3.58
2023-10-06T06:06:10.635Z,5.18
2023-10-06T06:11:14.421Z,4.40
2023-10-06T06:16:25.712Z,4.60
2023-10-06T06:21:29.483Z,4.60
2023-10-06T06:26:33.289Z,4.07
2023-10-06T06:31:44.629Z,4.40
2023-10-06T06:36:54.731Z,3.67
2023-10-06T06:42:05.536Z,4.15
2023-10-06T06:47:17.372Z,4.35
2023-10-06T06:52:26.219Z,4.18
2023-10-06T06:57:29.952Z,4.30
2023-10-06T07:02:40.090Z,3.85
2023-10-06T07:07:46.337Z,4.35
2023-10-06T07:12:55.757Z,3.72
2023-10-06T07:18:06.568Z,3.55
2023-10-06T07:23:15.429Z,2.90
2023-10-06T07:28:19.297Z,2.88
2023-10-06T07:33:25.004Z,3.40
2023-10-06T07:38:28.790Z,3.17
2023-10-06T07:43:37.606Z,3.08
2023-10-06T07:48:48.220Z,3.40
2023-10-06T07:54:00.394Z,3.40
2023-10-06T07:59:10.120Z,3.30
2023-10-06T08:04:20.363Z,3.40
2023-10-06T08:09:29.085Z,3.60
2023-10-06T08:14:33.648Z,3.75
2023-10-06T08:19:43.747Z,3.50
2023-10-06T08:24:47.664Z,3.60
2023-10-06T08:29:56.756Z,3.20
2023-10-06T08:35:02.259Z,3.15
2023-10-06T08:45:27.760Z,3.55
2023-10-06T08:50:38.405Z,3.50
2023-10-06T09:00:50.863Z,3.05
2023-10-06T09:05:56.016Z,3.00
2023-10-06T09:11:01.188Z,3.75
2023-10-06T09:16:11.532Z,3.03
2023-10-06T09:21:21.878Z,3.03
2023-10-06T09:26:31.110Z,2.17
2023-10-06T09:31:45.658Z,2.78
2023-10-06T09:36:56.491Z,2.08
2023-10-06T09:47:20.158Z,2.45
2023-10-06T09:52:26.831Z,2.17
2023-10-06T09:57:36.397Z,2.10
2023-10-06T10:02:41.887Z,2.08
2023-10-06T10:07:49.718Z,2.25
2023-10-06T10:13:21.205Z,2.08
2023-10-06T10:18:37.107Z,3.15
2023-10-06T10:23:47.364Z,2.08
2023-10-06T10:34:25.192Z,1.48
2023-10-06T10:39:50.356Z,1.60
2023-10-06T10:45:31.389Z,2.15
2023-10-06T10:51:00.874Z,2.13
2023-10-06T10:56:15.291Z,1.50
2023-10-06T11:01:27.706Z,1.93
2023-10-06T11:06:33.238Z,1.70
2023-10-06T11:11:39.704Z,1.73
2023-10-06T11:16:47.829Z,1.48
2023-10-06T11:21:56.596Z,2.00
2023-10-06T11:27:15.969Z,2.15
2023-10-06T11:32:20.058Z,1.70
2023-10-06T11:37:26.492Z,1.73
2023-10-06T11:42:36.446Z,1.60
2023-10-06T11:47:42.022Z,1.52
2023-10-06T11:52:51.871Z,1.40
2023-10-06T11:58:06.002Z,1.40
2023-10-06T12:08:45.297Z,1.05
2023-10-06T12:13:55.605Z,1.80
2023-10-06T12:19:01.145Z,1.70
2023-10-06T12:24:05.393Z,1.40
2023-10-06T12:29:11.055Z,1.60
2023-10-06T12:34:21.395Z,1.10
2023-10-06T12:39:35.513Z,1.10
2023-10-06T12:44:45.675Z,1.13
2023-10-06T12:49:54.468Z,1.17
2023-10-06T12:55:06.828Z,1.40
2023-10-06T13:00:18.046Z,1.05
2023-10-06T13:05:27.317Z,1.15
2023-10-06T13:10:31.704Z,0.98
2023-10-06T13:15:36.917Z,1.00
2023-10-06T13:20:41.800Z,1.10
2023-10-06T13:25:50.554Z,0.93
2023-10-06T13:31:00.732Z,1.40
2023-10-06T13:36:10.303Z,1.55
2023-10-06T13:41:19.935Z,1.10
2023-10-06T13:46:26.821Z,1.52
2023-10-06T13:51:35.590Z,1.00
2023-10-06T13:56:44.371Z,0.88
2023-10-06T14:01:54.883Z,1.20
2023-10-06T14:07:06.784Z,1.10
2023-10-06T14:12:16.132Z,1.48
2023-10-06T14:17:22.891Z,0.93
2023-10-06T14:22:31.759Z,1.13
2023-10-06T14:27:35.486Z,1.30
2023-10-06T14:32:56.284Z,1.40
2023-10-06T14:38:37.107Z,1.17
2023-10-06T14:43:58.461Z,1.50
2023-10-06T14:49:14.301Z,1.10
2023-10-06T14:54:26.933Z,1.20
2023-10-06T14:59:36.280Z,1.30
2023-10-06T15:04:42.043Z,1.85
2023-10-06T15:09:46.307Z,1.50
2023-10-06T15:14:55.351Z,1.67
2023-10-06T15:20:07.488Z,1.50
2023-10-06T15:25:14.743Z,1.50
2023-10-06T15:30:18.915Z,1.10
2023-10-06T15:35:37.224Z,1.58
2023-10-06T15:40:41.333Z,1.38
2023-10-06T15:45:56.908Z,1.88
2023-10-06T15:51:09.264Z,1.30
2023-10-06T15:56:15.579Z,1.45
2023-10-06T16:01:20.559Z,1.80
2023-10-06T16:06:27.229Z,3.00
2023-10-06T16:11:37.081Z,1.95
2023-10-06T16:16:47.433Z,3.13
2023-10-06T16:21:57.733Z,2.38
2023-10-06T16:27:01.844Z,1.75
2023-10-06T16:32:05.926Z,1.90
2023-10-06T16:37:11.189Z,2.00
2023-10-06T16:42:20.097Z,1.75
2023-10-06T16:47:29.079Z,2.28
2023-10-06T16:52:39.614Z,2.17
2023-10-06T16:57:43.694Z,1.65
2023-10-06T17:02:48.567Z,2.17
2023-10-06T17:07:54.164Z,1.98
2023-10-06T17:12:59.649Z,2.50
2023-10-06T17:18:09.101Z,2.92
2023-10-06T17:23:14.443Z,2.35
2023-10-06T17:28:20.084Z,2.67
2023-10-06T17:33:30.051Z,2.80
2023-10-06T17:38:41.038Z,3.17
2023-10-06T17:48:54.980Z,3.30
2023-10-06T17:54:05.678Z,3.10
2023-10-06T17:59:11.011Z,3.40
2023-10-06T18:04:20.050Z,3.40
2023-10-06T18:09:26.129Z,3.03
2023-10-06T18:14:30.095Z,2.45
2023-10-06T18:19:34.056Z,2.80
2023-10-06T18:24:39.305Z,2.22
2023-10-06T18:29:43.152Z,2.67
2023-10-06T18:34:47.151Z,2.70
2023-10-06T18:39:53.258Z,3.25
2023-10-06T18:50:07.033Z,2.90
2023-10-06T18:55:19.040Z,3.33
2023-10-06T19:00:24.200Z,2.88
2023-10-06T19:05:28.337Z,3.08
2023-10-06T19:10:39.990Z,3.10
2023-10-06T19:15:52.125Z,2.55
2023-10-06T19:21:01.450Z,3.30
2023-10-06T19:26:12.810Z,2.58
2023-10-06T19:31:17.464Z,3.33
2023-10-06T19:36:27.016Z,3.28
2023-10-06T19:41:33.609Z,3.40
2023-10-06T19:46:42.833Z,3.55
2023-10-06T19:51:47.826Z,3.33
2023-10-06T19:56:59.307Z,3.08
2023-10-06T20:02:10.750Z,3.50
2023-10-06T20:12:30.329Z,3.55
2023-10-06T20:17:34.532Z,3.47
2023-10-06T20:22:39.378Z,3.58
2023-10-06T20:27:49.594Z,3.17
2023-10-06T20:32:58.400Z,2.85
2023-10-06T20:38:07.664Z,3.63
2023-10-06T20:43:20.335Z,3.80
2023-10-06T20:48:32.926Z,4.03
2023-10-06T20:53:37.299Z,4.25
2023-10-06T20:58:49.102Z,4.25
2023-10-06T21:04:04.919Z,4.38
2023-10-06T21:09:08.673Z,4.68
2023-10-06T21:14:17.337Z,3.75
2023-10-06T21:19:27.401Z,3.60
2023-10-06T21:24:36.170Z,3.30
2023-10-06T21:29:46.277Z,3.20
2023-10-06T21:34:55.072Z,3.80
2023-10-06T21:39:58.788Z,4.95
2023-10-06T21:45:04.718Z,3.63
2023-10-06T21:50:14.131Z,4.32
2023-10-06T21:55:22.904Z,5.22
2023-10-06T22:00:33.956Z,4.13
2023-10-06T22:05:42.768Z,4.78
2023-10-06T22:10:51.451Z,3.80
2023-10-06T22:15:58.790Z,3.58
2023-10-06T22:21:02.568Z,3.20
2023-10-06T22:26:06.335Z,4.28
2023-10-06T22:31:16.773Z,3.28
2023-10-06T22:36:25.982Z,2.83
2023-10-06T22:41:34.742Z,4.10
2023-10-06T22:46:39.960Z,3.20
2023-10-06T22:51:50.716Z,3.47
2023-10-06T22:56:54.522Z,3.85
2023-10-06T23:02:00.751Z,3.40
2023-10-06T23:07:04.635Z,3.47
2023-10-06T23:12:13.281Z,3.33
2023-10-06T23:17:24.675Z,4.10
2023-10-06T23:22:29.049Z,3.33
2023-10-06T23:27:34.451Z,3.70
2023-10-06T23:32:44.975Z,3.38
2023-10-06T23:37:56.760Z,3.33
2023-10-06T23:43:00.565Z,2.97
2023-10-06T23:48:13.814Z,3.60
2023-10-06T23:53:28.391Z,3.15
2023-10-06T23:58:37.728Z,4.35
